Time;durP1;ratioP1;P1;durP2;ratioP2;P2;SDS_P1;SDS_P2;PMS_P1;PMS_P2;Temp;Humidity;BMP_temperature;BMP_pressure;BME280_temperature;BME280_humidity;BME280_pressure;Samples;Min_cycle;Max_cycle;Signal;HPM_P1;HPM_P2
2020/12/20 00:00:31;;;;;;;34.80;23.20;;;22.40;36.70;;;;;;6172759;28;83272;-54
2020/12/20 00:03:31;;;;;;;38.38;23.63;;;22.30;36.10;;;;;;6175677;28;82998;-50
2020/12/20 00:06:32;;;;;;;37.70;23.50;;;22.30;36.10;;;;;;6178459;28;83099;-54
2020/12/20 00:09:33;;;;;;;34.50;22.92;;;22.30;36.10;;;;;;6178337;28;83449;-54
2020/12/20 00:12:33;;;;;;;40.35;24.52;;;22.30;36.10;;;;;;6177903;27;83374;-50
2020/12/20 00:15:34;;;;;;;37.83;23.52;;;22.30;36.00;;;;;;6180197;28;83865;-49
2020/12/20 00:18:34;;;;;;;34.90;22.85;;;22.30;36.30;;;;;;6181582;27;83406;-52
2020/12/20 00:21:35;;;;;;;36.38;22.98;;;22.20;36.90;;;;;;6179697;28;84049;-53
2020/12/20 00:24:35;;;;;;;39.40;23.13;;;22.20;36.20;;;;;;6178449;28;83449;-55
2020/12/20 00:27:36;;;;;;;40.90;24.65;;;22.20;36.20;;;;;;6177192;28;84131;-54
2020/12/20 00:30:36;;;;;;;37.53;23.13;;;22.20;36.00;;;;;;6175128;27;83609;-52
2020/12/20 00:33:37;;;;;;;38.22;22.33;;;22.20;35.80;;;;;;6180461;28;83387;-52
2020/12/20 00:36:37;;;;;;;40.92;23.52;;;22.20;36.10;;;;;;6180314;27;83102;-51
2020/12/20 00:39:38;;;;;;;34.65;22.27;;;22.10;36.10;;;;;;6182195;28;83780;-50
2020/12/20 00:42:38;;;;;;;40.35;23.50;;;22.10;35.90;;;;;;6179966;27;83212;-50
2020/12/20 00:45:39;;;;;;;38.08;22.95;;;22.10;35.70;;;;;;6177601;28;89362;-53
2020/12/20 00:48:40;;;;;;;35.30;22.88;;;22.10;35.50;;;;;;6176539;28;85652;-51
2020/12/20 00:51:40;;;;;;;35.30;22.02;;;22.10;35.40;;;;;;6180571;28;83057;-50
2020/12/20 00:54:41;;;;;;;36.50;22.25;;;22.10;35.30;;;;;;6172869;28;83272;-53
2020/12/20 00:57:45;;;;;;;39.47;22.30;;;22.10;35.70;;;;;;6156099;28;84411;-51
2020/12/20 01:00:46;;;;;;;36.35;21.33;;;22.10;35.40;;;;;;6164632;27;83956;-54
2020/12/20 01:03:47;;;;;;;35.78;21.42;;;22.10;35.20;;;;;;6193403;28;83573;-54
2020/12/20 01:06:47;;;;;;;35.17;21.77;;;22.10;35.10;;;;;;6183700;27;84189;-51
2020/12/20 01:09:55;;;;;;;36.45;22.40;;;22.10;35.10;;;;;;6186405;28;86022;-51
2020/12/20 01:12:59;;;;;;;38.60;23.20;;;22.10;35.00;;;;;;6196824;28;86026;-53
2020/12/20 01:16:07;;;;;;;34.67;21.45;;;22.10;35.00;;;;;;6186463;28;85585;-51
2020/12/20 01:19:07;;;;;;;37.10;21.67;;;22.10;34.80;;;;;;6180155;27;85899;-54
2020/12/20 01:22:08;;;;;;;35.38;22.75;;;22.00;35.10;;;;;;6176727;28;85606;-52
2020/12/20 01:25:11;;;;;;;37.65;23.30;;;22.10;35.00;;;;;;6182143;28;88928;-53
2020/12/20 01:28:12;;;;;;;39.83;24.85;;;22.00;34.70;;;;;;6179133;28;85295;-51
2020/12/20 01:31:16;;;;;;;38.70;24.45;;;22.00;34.80;;;;;;6174963;28;84259;-52
2020/12/20 01:34:30;;;;;;;37.75;22.77;;;22.00;35.00;;;;;;6179397;28;84221;-50
2020/12/20 01:37:31;;;;;;;36.38;22.63;;;22.00;35.10;;;;;;6176996;28;83177;-53
2020/12/20 01:40:31;;;;;;;40.90;23.98;;;22.00;35.30;;;;;;6172031;28;86865;-51
2020/12/20 01:43:32;;;;;;;41.35;25.02;;;22.00;34.90;;;;;;6171488;28;85650;-53
2020/12/20 01:46:32;;;;;;;43.97;24.65;;;22.00;34.90;;;;;;6177592;28;85742;-52
2020/12/20 01:49:34;;;;;;;45.33;26.58;;;22.00;34.80;;;;;;6177531;28;85029;-53
2020/12/20 01:52:37;;;;;;;41.38;26.08;;;22.00;34.70;;;;;;6184560;28;82906;-52
2020/12/20 01:55:39;;;;;;;42.42;25.80;;;22.00;34.80;;;;;;6172345;27;85811;-52
2020/12/20 01:58:41;;;;;;;44.83;26.77;;;22.00;34.80;;;;;;6175797;28;83296;-54
2020/12/20 02:01:50;;;;;;;43.78;26.13;;;22.00;34.70;;;;;;6175179;28;85544;-57
2020/12/20 02:05:05;;;;;;;42.05;25.65;;;22.00;34.70;;;;;;6172521;28;85940;-54
2020/12/20 02:08:06;;;;;;;45.55;27.40;;;22.00;34.70;;;;;;6177192;28;85055;-51
2020/12/20 02:11:07;;;;;;;43.55;25.13;;;22.00;34.50;;;;;;6168147;28;85895;-52
2020/12/20 02:14:08;;;;;;;44.20;26.45;;;22.00;34.60;;;;;;6174627;28;85105;-51
2020/12/20 02:17:18;;;;;;;41.63;26.25;;;22.00;34.50;;;;;;6183287;28;86179;-52
2020/12/20 02:20:19;;;;;;;43.28;26.48;;;21.90;34.30;;;;;;6170392;27;84959;-52
2020/12/20 02:23:32;;;;;;;46.88;28.42;;;22.00;34.40;;;;;;6177822;28;83237;-54
2020/12/20 02:26:35;;;;;;;47.25;28.90;;;21.90;34.30;;;;;;6173006;28;85932;-50
2020/12/20 02:29:37;;;;;;;47.63;29.35;;;21.90;34.30;;;;;;6176250;28;83970;-51
2020/12/20 02:32:37;;;;;;;48.30;28.10;;;21.90;34.20;;;;;;6176393;28;85742;-51
2020/12/20 02:35:38;;;;;;;46.72;28.52;;;21.90;34.20;;;;;;6175064;28;84186;-54
2020/12/20 02:38:39;;;;;;;47.58;27.70;;;21.90;34.10;;;;;;6174305;28;85236;-53
2020/12/20 02:41:47;;;;;;;44.97;28.40;;;21.90;34.00;;;;;;6176577;28;85667;-51
2020/12/20 02:44:47;;;;;;;42.92;26.63;;;21.90;33.90;;;;;;6179044;28;83184;-50
2020/12/20 02:47:50;;;;;;;44.60;26.95;;;22.00;33.90;;;;;;6173178;28;84155;-53
2020/12/20 02:50:51;;;;;;;42.30;26.13;;;21.90;33.70;;;;;;6174317;28;85925;-53
2020/12/20 02:53:52;;;;;;;47.85;26.98;;;21.90;33.80;;;;;;6175816;28;85517;-54
2020/12/20 02:57:06;;;;;;;42.25;26.65;;;21.90;33.70;;;;;;6174864;28;89581;-54
2020/12/20 03:00:18;;;;;;;44.90;26.77;;;21.90;33.50;;;;;;6175043;27;85633;-52
2020/12/20 03:03:19;;;;;;;44.00;27.60;;;21.90;33.40;;;;;;6164702;28;85464;-50
2020/12/20 03:06:22;;;;;;;42.38;26.65;;;21.90;33.40;;;;;;6178327;28;83903;-49
2020/12/20 03:09:28;;;;;;;;;;;21.90;33.40;;;;;;6177363;28;84373;-49
2020/12/20 03:12:30;;;;;;;44.50;27.10;;;21.90;33.30;;;;;;6191443;28;85163;-54
2020/12/20 03:15:31;;;;;;;46.88;26.95;;;21.90;33.20;;;;;;6184311;28;83026;-54
2020/12/20 03:18:31;;;;;;;44.22;26.23;;;21.90;33.20;;;;;;6176891;28;85814;-53
2020/12/20 03:21:34;;;;;;;47.28;27.85;;;21.90;33.20;;;;;;6179888;27;85491;-51
2020/12/20 03:24:53;;;;;;;40.92;26.33;;;21.90;33.10;;;;;;6176707;28;83026;-50
2020/12/20 03:28:12;;;;;;;40.17;25.95;;;21.90;33.00;;;;;;6184059;28;83829;-50
2020/12/20 03:31:31;;;;;;;42.90;25.65;;;21.90;33.10;;;;;;6181744;28;86441;-49
2020/12/20 03:34:37;;;;;;;44.42;26.60;;;21.90;33.20;;;;;;6163699;28;85886;-53
2020/12/20 03:38:16;;;;;;;46.17;27.25;;;21.90;33.20;;;;;;6166560;28;83473;-51
2020/12/20 03:41:19;;;;;;;44.22;26.17;;;21.80;33.20;;;;;;6176641;28;86069;-51
2020/12/20 03:44:22;;;;;;;45.35;26.23;;;21.80;33.10;;;;;;6152285;27;86083;-52
2020/12/20 03:47:24;;;;;;;44.75;26.08;;;21.80;33.80;;;;;;6171470;28;84225;-54
2020/12/20 03:50:26;;;;;;;41.28;25.85;;;21.80;33.10;;;;;;6176267;28;85684;-53
2020/12/20 03:53:26;;;;;;;42.65;26.13;;;21.80;33.10;;;;;;6178742;28;84667;-53
2020/12/20 03:56:41;;;;;;;39.45;24.42;;;21.80;33.00;;;;;;6180345;28;87006;-50
2020/12/20 03:59:54;;;;;;;41.03;25.52;;;21.80;33.10;;;;;;6177878;28;86183;-62
2020/12/20 04:02:55;;;;;;;38.05;24.92;;;21.80;32.90;;;;;;6181294;27;82679;-55
2020/12/20 04:05:59;;;;;;;40.88;24.33;;;21.80;32.90;;;;;;6180339;28;85581;-51
2020/12/20 04:09:00;;;;;;;40.60;26.17;;;21.80;32.90;;;;;;6178859;28;85125;-50
2020/12/20 04:12:24;;;;;;;38.45;24.88;;;21.80;33.00;;;;;;6173964;28;89956;-52
2020/12/20 04:15:26;;;;;;;46.00;26.73;;;21.70;33.10;;;;;;6179911;28;86676;-55
2020/12/20 04:18:26;;;;;;;43.70;26.13;;;21.80;33.10;;;;;;6162737;27;85509;-51
2020/12/20 04:21:27;;;;;;;40.80;24.73;;;21.80;33.20;;;;;;6180011;28;84745;-53
2020/12/20 04:24:28;;;;;;;40.05;24.58;;;21.80;33.40;;;;;;6166074;27;86515;-50
2020/12/20 04:27:28;;;;;;;40.38;25.08;;;21.80;33.30;;;;;;6174421;28;84685;-52
2020/12/20 04:30:35;;;;;;;38.03;23.80;;;21.80;33.40;;;;;;6143454;28;85828;-51
2020/12/20 04:33:46;;;;;;;39.92;24.45;;;21.70;33.30;;;;;;6159444;28;85906;-52
2020/12/20 04:36:52;;;;;;;41.00;24.98;;;21.80;33.30;;;;;;6178275;28;85116;-54
2020/12/20 04:40:12;;;;;;;38.65;24.75;;;21.80;33.30;;;;;;6179425;28;85659;-53
2020/12/20 04:43:22;;;;;;;41.00;24.05;;;21.70;33.00;;;;;;6184386;28;85622;-53
2020/12/20 04:46:23;;;;;;;42.90;26.35;;;21.80;32.90;;;;;;6178077;27;86045;-53
2020/12/20 04:49:53;;;;;;;39.15;23.98;;;21.80;32.80;;;;;;6182289;28;85891;-55
2020/12/20 04:53:00;;;;;;;39.95;25.13;;;21.80;32.70;;;;;;6183390;28;85159;-57
2020/12/20 04:56:24;;;;;;;43.58;25.83;;;21.80;32.70;;;;;;6169218;28;85951;-55
2020/12/20 04:59:38;;;;;;;43.90;26.48;;;21.80;32.60;;;;;;6170342;28;85616;-55
2020/12/20 05:02:43;;;;;;;41.00;25.00;;;21.80;32.60;;;;;;6178179;28;85832;-55
2020/12/20 05:05:47;;;;;;;41.00;25.98;;;21.80;33.70;;;;;;6176096;28;84112;-54
2020/12/20 05:08:47;;;;;;;45.05;26.85;;;21.80;32.60;;;;;;6152827;28;85508;-56
2020/12/20 05:11:53;;;;;;;43.17;26.10;;;21.90;32.20;;;;;;6192816;28;85455;-54
2020/12/20 05:15:00;;;;;;;42.92;25.88;;;22.00;32.10;;;;;;6190619;28;85955;-53
2020/12/20 05:18:05;;;;;;;40.63;25.08;;;22.00;32.10;;;;;;6185983;28;90461;-55
2020/12/20 05:21:06;;;;;;;38.33;23.58;;;22.10;32.00;;;;;;6153949;28;84502;-52
2020/12/20 05:24:25;;;;;;;43.53;25.38;;;22.20;32.10;;;;;;6182232;28;82966;-54
2020/12/20 05:27:30;;;;;;;41.35;25.67;;;22.20;31.60;;;;;;6177604;28;85516;-53
2020/12/20 05:30:36;;;;;;;43.03;26.25;;;22.30;31.30;;;;;;6190688;27;84144;-51
2020/12/20 05:34:00;;;;;;;38.03;23.92;;;22.30;31.00;;;;;;6176801;28;83294;-53
2020/12/20 05:37:10;;;;;;;45.30;27.35;;;22.30;30.90;;;;;;6177883;28;85481;-51
2020/12/20 05:40:30;;;;;;;41.97;26.70;;;22.40;31.30;;;;;;6178130;27;83585;-54
2020/12/20 05:43:32;;;;;;;43.75;25.73;;;22.40;30.50;;;;;;6180886;28;84477;-49
2020/12/20 05:46:35;;;;;;;41.90;25.70;;;22.40;30.70;;;;;;6175173;27;85000;-51
2020/12/20 05:49:35;;;;;;;45.30;26.75;;;22.50;31.00;;;;;;6181504;28;85616;-52
2020/12/20 05:52:38;;;;;;;41.50;25.40;;;22.60;31.10;;;;;;6179800;28;83973;-50
2020/12/20 05:55:39;;;;;;;43.78;25.88;;;22.60;30.90;;;;;;6170096;28;84177;-52
2020/12/20 05:58:39;;;;;;;42.38;25.38;;;22.60;30.80;;;;;;6169368;28;83105;-51
2020/12/20 06:01:40;;;;;;;43.97;24.60;;;22.70;31.50;;;;;;6178283;28;83922;-50
2020/12/20 06:04:40;;;;;;;36.65;21.20;;;22.70;32.10;;;;;;6177587;28;82958;-49
2020/12/20 06:07:41;;;;;;;32.45;20.25;;;22.70;33.70;;;;;;6177852;27;82919;-53
2020/12/20 06:10:41;;;;;;;30.95;17.77;;;22.60;34.80;;;;;;6177763;28;83541;-52
2020/12/20 06:13:42;;;;;;;29.13;17.65;;;22.60;35.50;;;;;;6175758;28;85556;-54
2020/12/20 06:16:42;;;;;;;22.52;14.10;;;22.60;36.30;;;;;;6155373;28;83329;-50
2020/12/20 06:19:43;;;;;;;21.40;13.20;;;22.60;36.60;;;;;;6171428;28;83061;-52
2020/12/20 06:22:44;;;;;;;22.42;13.00;;;22.60;37.70;;;;;;6175960;28;83171;-49
2020/12/20 06:25:44;;;;;;;23.63;12.90;;;22.60;37.70;;;;;;6165612;28;83859;-51
2020/12/20 06:28:45;;;;;;;22.15;12.75;;;22.60;38.00;;;;;;6176565;28;83499;-53
2020/12/20 06:31:45;;;;;;;16.95;11.25;;;22.60;38.20;;;;;;6174500;28;84424;-48
2020/12/20 06:34:46;;;;;;;18.73;11.50;;;22.60;39.40;;;;;;6170379;28;85351;-51
2020/12/20 06:37:46;;;;;;;18.98;11.15;;;22.70;39.60;;;;;;6172105;28;83599;-54
2020/12/20 06:40:47;;;;;;;22.75;13.13;;;22.70;39.60;;;;;;6177662;28;82884;-52
2020/12/20 06:43:48;;;;;;;19.63;11.95;;;22.70;39.90;;;;;;6172659;28;83636;-50
2020/12/20 06:46:49;;;;;;;16.95;10.88;;;22.70;40.90;;;;;;6174488;27;84045;-51
2020/12/20 06:49:49;;;;;;;16.45;10.98;;;22.70;41.00;;;;;;6175702;28;83267;-54
2020/12/20 06:52:50;;;;;;;19.23;11.63;;;22.70;41.10;;;;;;6175835;28;83102;-52
2020/12/20 06:55:50;;;;;;;17.88;11.65;;;22.70;41.20;;;;;;6170279;28;83957;-50
2020/12/20 06:58:51;;;;;;;19.42;11.68;;;22.70;41.20;;;;;;6176417;27;83536;-54
2020/12/20 07:01:51;;;;;;;17.52;11.02;;;22.70;41.10;;;;;;6168396;28;84196;-51
2020/12/20 07:04:52;;;;;;;18.70;10.77;;;22.60;41.60;;;;;;6175591;27;83402;-50
2020/12/20 07:07:52;;;;;;;17.85;10.82;;;22.60;41.70;;;;;;6175053;28;83306;-48
2020/12/20 07:10:53;;;;;;;19.27;11.30;;;22.60;41.90;;;;;;6174104;27;84572;-51
2020/12/20 07:13:54;;;;;;;18.75;10.98;;;22.60;41.90;;;;;;6172325;28;85157;-51
2020/12/20 07:16:54;;;;;;;17.90;11.35;;;22.60;41.60;;;;;;6173083;28;86220;-50
2020/12/20 07:19:55;;;;;;;18.67;11.10;;;22.60;41.90;;;;;;6175459;28;83167;-52
2020/12/20 07:22:55;;;;;;;19.60;11.40;;;22.60;41.80;;;;;;6174962;28;83112;-51
2020/12/20 07:25:56;;;;;;;18.23;11.05;;;22.60;42.30;;;;;;6175934;28;83812;-52
2020/12/20 07:28:57;;;;;;;20.02;11.98;;;22.50;42.40;;;;;;6173762;27;83698;-53
2020/12/20 07:31:57;;;;;;;20.40;12.13;;;22.50;42.20;;;;;;6184020;28;83325;-50
2020/12/20 07:34:58;;;;;;;18.50;11.68;;;22.50;41.70;;;;;;6190709;28;82888;-50
2020/12/20 07:37:58;;;;;;;18.23;11.25;;;22.50;41.70;;;;;;6182646;28;83290;-50
2020/12/20 07:40:59;;;;;;;20.85;11.43;;;22.50;42.20;;;;;;6157343;28;83596;-52
2020/12/20 07:44:00;;;;;;;17.40;10.20;;;22.40;42.60;;;;;;6163176;28;83175;-52
2020/12/20 07:47:01;;;;;;;19.15;11.23;;;22.40;42.90;;;;;;6161689;28;83556;-51
2020/12/20 07:50:01;;;;;;;18.67;10.70;;;22.40;42.90;;;;;;6174544;28;83052;-47
2020/12/20 07:53:02;;;;;;;18.15;11.23;;;22.50;42.80;;;;;;6172811;27;84216;-50
2020/12/20 07:56:02;;;;;;;17.88;10.55;;;22.50;43.40;;;;;;6175201;28;83342;-52
2020/12/20 07:59:03;;;;;;;18.33;10.27;;;22.50;43.50;;;;;;6175163;27;83187;-50
2020/12/20 08:02:03;;;;;;;18.13;9.98;;;22.40;43.70;;;;;;6174519;28;82990;-51
2020/12/20 08:05:04;;;;;;;16.88;10.32;;;22.30;43.80;;;;;;6157301;28;86456;-48
2020/12/20 08:08:05;;;;;;;17.50;9.93;;;22.30;43.90;;;;;;6166414;28;83368;-51
2020/12/20 08:11:05;;;;;;;189.98;77.85;;;22.30;43.70;;;;;;6177522;28;83630;-51
2020/12/20 08:14:06;;;;;;;255.48;107.90;;;22.30;43.70;;;;;;6173477;28;83387;-50
2020/12/20 08:17:06;;;;;;;291.77;115.63;;;22.30;44.20;;;;;;6174680;28;85695;-52
2020/12/20 08:20:07;;;;;;;413.83;159.13;;;22.30;44.30;;;;;;6154783;28;89102;-52
2020/12/20 08:23:07;;;;;;;303.40;117.65;;;22.30;44.00;;;;;;6144814;28;86739;-52
2020/12/20 08:26:08;;;;;;;219.73;87.38;;;22.30;43.70;;;;;;6153701;28;87569;-52
2020/12/20 08:29:08;;;;;;;263.30;105.82;;;22.30;43.40;;;;;;6156798;28;85587;-50
2020/12/20 08:32:09;;;;;;;303.98;127.85;;;22.30;43.70;;;;;;6165313;27;88365;-50
2020/12/20 08:35:09;;;;;;;385.40;152.45;;;22.30;43.80;;;;;;6172159;28;85892;-51
2020/12/20 08:38:10;;;;;;;426.27;170.88;;;22.30;44.10;;;;;;6175021;27;85792;-51
2020/12/20 08:41:10;;;;;;;391.35;153.90;;;22.30;44.10;;;;;;6175752;28;85784;-48
2020/12/20 08:44:11;;;;;;;300.70;123.75;;;22.30;43.80;;;;;;6174456;27;85727;-47
2020/12/20 08:47:11;;;;;;;232.65;92.25;;;22.30;43.70;;;;;;6151997;28;85369;-47
2020/12/20 08:50:12;;;;;;;180.60;73.68;;;22.30;43.70;;;;;;6168873;28;85132;-46
2020/12/20 08:53:13;;;;;;;144.60;61.50;;;22.30;43.50;;;;;;6178338;28;83495;-49
2020/12/20 08:56:13;;;;;;;130.10;50.65;;;22.30;43.10;;;;;;6166821;28;83201;-49
2020/12/20 08:59:14;;;;;;;102.55;40.15;;;22.20;42.90;;;;;;6167714;28;83531;-49
2020/12/20 09:02:14;;;;;;;74.13;33.72;;;22.30;42.40;;;;;;6173233;27;82960;-47
2020/12/20 09:05:15;;;;;;;68.40;28.65;;;22.40;41.90;;;;;;6175873;28;83205;-48
2020/12/20 09:08:19;;;;;;;59.42;25.40;;;22.50;41.40;;;;;;6178576;28;83907;-48
2020/12/20 09:11:19;;;;;;;50.22;22.25;;;22.50;41.30;;;;;;6177427;28;83916;-45
2020/12/20 09:14:20;;;;;;;38.55;17.77;;;22.50;40.60;;;;;;6175501;28;83049;-50
2020/12/20 09:17:20;;;;;;;35.63;17.10;;;22.60;40.10;;;;;;6176000;28;83360;-47
2020/12/20 09:20:21;;;;;;;32.75;16.15;;;22.50;39.80;;;;;;6171878;28;83118;-48
2020/12/20 09:23:21;;;;;;;30.33;15.63;;;22.50;39.50;;;;;;6171269;28;83234;-46
2020/12/20 09:26:22;;;;;;;30.77;13.60;;;22.60;39.00;;;;;;6150663;27;83357;-47
2020/12/20 09:29:22;;;;;;;33.70;14.68;;;22.70;38.40;;;;;;6174162;28;83632;-47
2020/12/20 09:32:23;;;;;;;26.02;13.88;;;22.70;37.50;;;;;;6175919;27;85482;-47
2020/12/20 09:35:23;;;;;;;30.00;14.88;;;22.70;37.40;;;;;;6174680;28;84314;-47
2020/12/20 09:38:24;;;;;;;28.55;15.35;;;22.80;37.00;;;;;;6177197;28;83349;-49
2020/12/20 09:41:24;;;;;;;29.35;15.25;;;22.80;37.20;;;;;;6177046;28;83801;-48
2020/12/20 09:44:25;;;;;;;29.45;15.05;;;22.90;36.70;;;;;;6172413;28;84810;-49
2020/12/20 09:47:25;;;;;;;28.17;16.90;;;22.90;36.70;;;;;;6167724;27;83000;-49
2020/12/20 09:50:26;;;;;;;31.85;16.75;;;22.90;36.40;;;;;;6173001;28;85396;-48
2020/12/20 09:53:26;;;;;;;33.00;17.60;;;23.00;36.60;;;;;;6174307;28;83355;-47
2020/12/20 09:56:27;;;;;;;32.45;18.05;;;23.00;36.70;;;;;;6174838;28;84255;-47
2020/12/20 09:59:27;;;;;;;33.25;17.02;;;23.10;36.80;;;;;;6172748;28;83328;-50
2020/12/20 10:02:28;;;;;;;31.63;16.73;;;23.10;36.60;;;;;;6170562;28;83415;-49
2020/12/20 10:05:28;;;;;;;34.42;18.15;;;23.10;36.90;;;;;;6172780;28;82797;-47
2020/12/20 10:08:29;;;;;;;28.88;17.15;;;23.10;37.30;;;;;;6172070;28;83207;-47
2020/12/20 10:11:30;;;;;;;32.42;17.58;;;23.10;37.20;;;;;;6171894;27;84007;-48
2020/12/20 10:14:30;;;;;;;34.28;17.95;;;23.10;36.90;;;;;;6177186;28;83452;-48
2020/12/20 10:17:31;;;;;;;31.20;17.13;;;23.10;37.30;;;;;;6175076;28;83751;-47
2020/12/20 10:20:31;;;;;;;33.33;18.58;;;23.10;37.40;;;;;;6172224;28;84558;-51
2020/12/20 10:23:32;;;;;;;31.85;18.73;;;23.10;37.00;;;;;;6174062;28;83374;-47
2020/12/20 10:26:32;;;;;;;35.75;18.13;;;23.10;36.80;;;;;;6174175;28;85828;-48
2020/12/20 10:29:33;;;;;;;32.50;18.23;;;23.10;37.10;;;;;;6173886;28;83983;-49
2020/12/20 10:32:33;;;;;;;30.15;17.67;;;23.00;37.10;;;;;;6174302;28;84090;-49
2020/12/20 10:35:34;;;;;;;33.72;18.27;;;23.00;36.90;;;;;;6174832;28;83229;-48
2020/12/20 10:38:34;;;;;;;26.08;16.38;;;23.00;36.50;;;;;;6175741;27;83529;-48
2020/12/20 10:41:35;;;;;;;29.52;17.42;;;22.90;36.10;;;;;;6174873;28;83283;-49
2020/12/20 10:44:35;;;;;;;32.15;17.38;;;22.90;36.00;;;;;;6176077;27;83791;-47
2020/12/20 10:47:36;;;;;;;24.48;14.27;;;22.90;35.70;;;;;;6174480;28;84094;-47
2020/12/20 10:50:36;;;;;;;26.67;15.43;;;22.80;35.40;;;;;;6168181;28;83328;-46
2020/12/20 10:53:37;;;;;;;27.67;15.82;;;22.80;35.30;;;;;;6175901;28;83476;-46
2020/12/20 10:56:37;;;;;;;26.88;16.02;;;22.80;35.70;;;;;;6174484;28;83442;-51
2020/12/20 10:59:38;;;;;;;27.55;16.85;;;22.80;36.10;;;;;;6174661;28;83504;-52
2020/12/20 11:02:38;;;;;;;22.10;14.57;;;22.80;36.10;;;;;;6176402;28;82899;-51
2020/12/20 11:05:39;;;;;;;26.75;15.10;;;22.90;36.50;;;;;;6172921;28;84390;-48
2020/12/20 11:08:39;;;;;;;28.85;15.18;;;22.90;36.40;;;;;;6182102;28;83903;-49
2020/12/20 11:11:41;;;;;;;25.05;14.82;;;22.90;36.20;;;;;;6173797;28;83288;-50
2020/12/20 11:14:41;;;;;;;24.95;14.70;;;22.90;36.20;;;;;;6176139;28;83107;-48
2020/12/20 11:17:42;;;;;;;25.15;15.48;;;22.90;36.10;;;;;;6145696;28;83295;-50
2020/12/20 11:20:42;;;;;;;25.80;14.57;;;22.90;36.10;;;;;;6171629;28;83356;-49
2020/12/20 11:23:43;;;;;;;23.55;14.45;;;22.80;35.70;;;;;;6165082;28;83305;-49
2020/12/20 11:26:44;;;;;;;27.38;16.90;;;22.80;35.70;;;;;;6175415;27;83524;-52
2020/12/20 11:29:44;;;;;;;21.42;12.93;;;22.80;36.10;;;;;;6175569;28;84208;-48
2020/12/20 11:32:45;;;;;;;23.83;14.32;;;22.90;35.40;;;;;;6175377;28;83619;-50
2020/12/20 11:35:45;;;;;;;20.05;12.20;;;22.80;34.90;;;;;;6174250;28;83344;-50
2020/12/20 11:38:46;;;;;;;28.45;13.00;;;22.80;35.20;;;;;;6175442;28;83245;-47
2020/12/20 11:41:46;;;;;;;25.52;11.73;;;22.80;35.70;;;;;;6174528;28;85541;-47
2020/12/20 11:44:47;;;;;;;18.83;11.13;;;22.80;35.30;;;;;;6152181;28;83101;-51
2020/12/20 11:47:48;;;;;;;15.93;10.60;;;22.80;35.30;;;;;;6166169;28;84716;-49
2020/12/20 11:50:48;;;;;;;17.60;9.52;;;22.70;35.70;;;;;;6175008;27;84265;-50
2020/12/20 11:53:49;;;;;;;18.30;9.95;;;22.70;35.40;;;;;;6177122;28;83272;-48
2020/12/20 11:56:49;;;;;;;13.30;8.82;;;22.70;35.50;;;;;;6157006;28;80428;-50
2020/12/20 11:59:50;;;;;;;14.60;8.75;;;22.70;35.60;;;;;;6150692;28;80980;-49
2020/12/20 12:02:51;;;;;;;14.43;8.38;;;22.70;35.80;;;;;;6171134;28;80467;-52
2020/12/20 12:05:51;;;;;;;14.10;9.15;;;22.70;36.40;;;;;;6145866;28;84979;-51
2020/12/20 12:08:52;;;;;;;17.27;8.65;;;22.70;37.40;;;;;;6175210;28;80683;-49
2020/12/20 12:11:52;;;;;;;15.15;9.43;;;22.70;37.90;;;;;;6182525;28;85545;-48
2020/12/20 12:14:53;;;;;;;16.50;10.40;;;22.60;38.40;;;;;;6181836;28;80752;-53
2020/12/20 12:17:53;;;;;;;17.33;9.70;;;22.60;38.80;;;;;;6172980;28;83460;-48
2020/12/20 12:20:54;;;;;;;15.57;9.73;;;22.60;39.30;;;;;;6175168;28;83542;-49
2020/12/20 12:23:54;;;;;;;15.38;9.77;;;22.60;39.30;;;;;;6177392;28;81264;-50
2020/12/20 12:26:55;;;;;;;13.90;8.93;;;22.60;39.80;;;;;;6181199;28;81162;-51
2020/12/20 12:29:55;;;;;;;14.10;9.73;;;22.60;39.80;;;;;;6180597;28;80744;-48
2020/12/20 12:32:56;;;;;;;13.45;9.85;;;22.50;39.90;;;;;;6181932;28;80577;-51
2020/12/20 12:35:57;;;;;;;14.18;8.82;;;22.50;39.90;;;;;;6181405;28;81000;-50
2020/12/20 12:38:59;;;;;;;13.70;9.13;;;22.50;40.00;;;;;;6179157;27;80869;-51
2020/12/20 12:42:00;;;;;;;15.10;9.02;;;22.50;40.30;;;;;;6180269;28;83491;-53
2020/12/20 12:45:00;;;;;;;16.65;9.45;;;22.50;40.50;;;;;;6178630;28;80789;-54
2020/12/20 12:48:01;;;;;;;14.23;9.10;;;22.50;40.60;;;;;;6156847;28;81017;-52
2020/12/20 12:51:02;;;;;;;12.68;8.48;;;22.40;40.90;;;;;;6180685;28;87764;-53
2020/12/20 12:54:02;;;;;;;14.10;9.02;;;22.40;40.80;;;;;;6180528;28;80523;-53
2020/12/20 12:57:03;;;;;;;12.15;8.20;;;22.50;40.60;;;;;;6181126;28;80514;-50
2020/12/20 13:00:03;;;;;;;12.70;8.55;;;22.60;40.60;;;;;;6168842;28;81636;-50
2020/12/20 13:03:04;;;;;;;13.95;9.18;;;22.60;40.50;;;;;;6178583;28;81566;-49
2020/12/20 13:06:04;;;;;;;11.38;8.02;;;22.60;40.10;;;;;;6179906;28;80713;-53
2020/12/20 13:09:05;;;;;;;13.02;8.20;;;22.70;40.10;;;;;;6177816;28;81044;-50
2020/12/20 13:12:08;;;;;;;13.48;8.45;;;22.70;40.00;;;;;;6179920;28;81583;-50
2020/12/20 13:15:08;;;;;;;13.32;9.45;;;22.80;39.90;;;;;;6179409;28;80600;-52
2020/12/20 13:18:09;;;;;;;13.25;8.38;;;22.80;40.00;;;;;;6185260;28;81060;-52
2020/12/20 13:21:09;;;;;;;13.07;8.77;;;22.80;39.90;;;;;;6179226;28;80395;-50
2020/12/20 13:24:10;;;;;;;13.30;8.77;;;22.80;39.80;;;;;;6179283;28;81493;-50
2020/12/20 13:27:11;;;;;;;13.30;8.65;;;22.80;39.60;;;;;;6180263;28;80575;-51
2020/12/20 13:30:11;;;;;;;19.33;10.93;;;22.90;39.60;;;;;;6178591;28;80486;-52
2020/12/20 13:33:12;;;;;;;15.55;9.98;;;22.80;39.60;;;;;;6174772;28;85448;-51
2020/12/20 13:36:12;;;;;;;15.57;9.63;;;22.90;39.60;;;;;;6176973;28;83392;-52
2020/12/20 13:39:13;;;;;;;15.35;9.43;;;22.90;39.50;;;;;;6179357;27;82961;-49
2020/12/20 13:42:16;;;;;;;14.48;9.23;;;22.90;39.60;;;;;;6178963;28;80306;-51
2020/12/20 13:45:16;;;;;;;12.95;8.57;;;22.90;39.70;;;;;;6157548;27;83532;-54
2020/12/20 13:48:17;;;;;;;15.60;9.07;;;22.80;39.90;;;;;;6176408;28;80956;-51
2020/12/20 13:51:17;;;;;;;16.92;10.82;;;22.80;39.90;;;;;;6177417;28;81721;-53
2020/12/20 13:54:18;;;;;;;12.90;8.80;;;22.80;39.70;;;;;;6169876;28;83087;-51
2020/12/20 13:57:18;;;;;;;16.42;10.27;;;22.80;40.50;;;;;;6180626;27;83464;-51
2020/12/20 14:00:19;;;;;;;14.23;8.52;;;22.80;40.10;;;;;;6176457;28;83555;-51
2020/12/20 14:03:19;;;;;;;12.05;8.02;;;22.70;40.60;;;;;;6172816;27;82883;-53
2020/12/20 14:06:20;;;;;;;13.82;8.35;;;22.60;41.00;;;;;;6177709;28;80538;-52
2020/12/20 14:09:20;;;;;;;15.25;8.45;;;22.60;41.50;;;;;;6178015;28;80586;-54
2020/12/20 14:12:21;;;;;;;12.07;8.25;;;22.50;41.90;;;;;;6179470;28;80747;-54
2020/12/20 14:15:22;;;;;;;12.50;7.72;;;22.50;42.20;;;;;;6179135;28;82908;-53
2020/12/20 14:18:22;;;;;;;12.63;8.13;;;22.40;42.60;;;;;;6178674;28;81466;-53
2020/12/20 14:21:23;;;;;;;13.57;8.70;;;22.50;42.80;;;;;;6165028;27;82591;-55
2020/12/20 14:24:23;;;;;;;13.52;8.65;;;22.50;43.50;;;;;;6179505;28;80348;-53
2020/12/20 14:27:24;;;;;;;13.00;8.57;;;22.50;44.20;;;;;;6178521;27;80779;-54
2020/12/20 14:30:24;;;;;;;16.83;10.10;;;22.50;44.80;;;;;;6173167;28;80549;-51
2020/12/20 14:33:25;;;;;;;19.05;11.07;;;22.50;45.40;;;;;;6172726;28;83184;-52
2020/12/20 14:36:25;;;;;;;19.23;12.20;;;22.60;44.30;;;;;;6171405;28;85544;-50
2020/12/20 14:39:26;;;;;;;25.60;13.52;;;22.60;44.10;;;;;;6171831;28;84205;-54
2020/12/20 14:42:26;;;;;;;26.00;13.45;;;22.70;43.10;;;;;;6174919;28;84823;-52
2020/12/20 14:45:27;;;;;;;32.30;15.07;;;22.60;42.20;;;;;;6169671;27;85945;-54
2020/12/20 14:48:27;;;;;;;24.33;15.30;;;22.70;41.30;;;;;;6169474;28;83497;-54
2020/12/20 14:51:28;;;;;;;22.85;15.13;;;22.70;41.20;;;;;;6174561;27;83381;-52
2020/12/20 14:54:28;;;;;;;21.88;14.30;;;22.70;41.90;;;;;;6173819;28;83429;-52
2020/12/20 14:57:30;;;;;;;31.15;15.90;;;22.70;42.10;;;;;;6170704;28;83414;-54
2020/12/20 15:00:31;;;;;;;26.52;15.48;;;22.70;41.10;;;;;;6170875;28;83376;-52
2020/12/20 15:03:31;;;;;;;22.58;14.38;;;22.70;41.60;;;;;;6169036;28;83560;-53
2020/12/20 15:06:32;;;;;;;25.90;15.98;;;22.70;40.90;;;;;;6174764;28;82862;-52
2020/12/20 15:09:34;;;;;;;28.02;16.88;;;22.80;40.60;;;;;;6173519;28;83240;-52
2020/12/20 15:12:34;;;;;;;27.52;18.02;;;22.80;40.10;;;;;;6174680;28;82884;-49
2020/12/20 15:15:35;;;;;;;25.10;15.80;;;22.80;39.70;;;;;;6171685;28;83229;-53
2020/12/20 15:18:35;;;;;;;32.58;18.70;;;22.80;39.70;;;;;;6173053;28;83412;-53
2020/12/20 15:21:36;;;;;;;28.98;17.20;;;22.80;39.30;;;;;;6170701;28;83271;-52
2020/12/20 15:24:36;;;;;;;29.63;18.75;;;22.80;39.40;;;;;;6166410;28;86473;-52